Bischofshofen, Autriche

13:18 CEST le 24 octobre 2014 (GMT +0200)
Muehlach am Hochkoenig | Change Station
CLOSE
Current Station
Stations météorologiques personnelles
Location: Mühlbach Am Hochkönig, SALZBURG
Altitude: 2785 ft
Stations météo à proximité

Alt. 2785 ft 47.38 °N, 13.13 °E | Updated 14 seconds ago

Mostly Cloudy
Nuageux
43.5 ° F
Paraît 44 ° F
N
2.0
Vent Variable Vent de ESE
Gusts 2.5 mph

Aujourd'hui
Haut(e) -- | Bas -- ° F
--% Risque de précip.
Hier
Haut(e) -- | Bas -- ° F
Precip. -- pouce
7:38 AM 6:03 PM
Nouvelle lune, 0% visible
Pression 30.21 pouce
Visibilité 12.4 Miles terrestres
Nuages Nuageux 1000 ft
Refroidissement éolien 44 ° F
Point de rosée 37 ° F
Humidité 79%
Précipitations 0.00 pouce
Profondeur de la couche neigeuse Non disponible.
UV 1.0 sur 12
Pollen Non disponible.
Qualité de l'air Non disponible.
Flu Activity Non disponible.
METAR LOWZ 241100Z 00000KT 20KM BKN010SC 07/05 Q1023 RMK BKN

More Conditions Fewer Conditions

Pression 30.21 pouce
Visibilité 12.4 Miles terrestres
Nuages Nuageux 1000 ft
Refroidissement éolien 44 ° F
Point de rosée 37 ° F
Humidité 79%
Précipitations 0.00 pouce
Profondeur de la couche neigeuse Non disponible.
UV 1.0 sur 12
Pollen Non disponible.
Qualité de l'air Non disponible.
Flu Activity Non disponible.
METAR LOWZ 241100Z 00000KT 20KM BKN010SC 07/05 Q1023 RMK BKN

More Conditions Fewer Conditions

10-Day Weather Forecast

Almanac

Astronomie

Oct. 24, 2014 Lever Coucher
Temps réel 07:38 CEST 18:03 CEST
Crépuscule civil 07:06 CEST 18:34 CEST
Crépuscule nautique 06:31 CEST 19:10 CEST
Crépuscule astronomique 05:55 CEST 19:46 CEST
Lune 08:01 CEST 18:29 CEST
Durée de lumière visible 11h 28m
Longueur du jour
10h 25m
Tomorrow will be 3m 12s shorter.
Nouvelle lune, 0% of the Moon is Illuminated
Aujourd'hui
Nouvelle lune
Oct 30
Premier quartier
Nov 6
Pleine lune
Nov 14
Dernier quartier
Nov 22
Nouveau

Les extrêmes de température d’hier

Country Highs Country Lows

Community

WunderPhotos

Upload Photos

1,764,518 Photos téléchargées !

WunderBlogs® & News

Nearby

Qualité de l'air

Not available.

Épaisseur de neige

Not available.

Activité sismique

Ville Distance Mag. Time & Date
No recent earthquake activity has been reported nearby.
Minimum magnitude displayed is 2.5.

Températures des eaux côtières

Lieu Température
Aucun rapport de station

Stations météo à proximité